Main page
METAR-TAF:

METAR-TAF

Airports :

Bristol Airport

Bristol, England

latitude: 51-23N, longitude: 002-43W, elevation: 189 m

Current weather observation

The report was made 38 minutes ago, at 22:20 UTC
Wind 5 kt from the East
Temperature 13°C
Humidity 77%
Pressure 1023 hPa
Visibility 10 km or more

METAR: EGGD 192220Z AUTO 08005KT 9999 NCD 13/09 Q1023

Time: 23:58 (22:58 UTC)

Forecast

The report was made 6 hours and 3 minutes ago, at 16:55 UTC
Forecast valid from 19 at 18 UTC to 20 at 18 UTC
Wind 10 kt from the Northeast
Visibility 10 km or more
Few clouds at a height of 4000 ft
Becoming
from 20 at 00 UTC to 20 at 03 UTC
Wind 3 kt from variable directions
Becoming
from 20 at 06 UTC to 20 at 09 UTC
Wind 10 kt from the Northeast

TAF: EGGD 191655Z 1918/2018 05010KT 9999 FEW040 BECMG 2000/2003 VRB03KT BECMG 2006/2009 05010KT

Weather observations and forecasts of more than 4000 airports (METAR and TAF reports).

The available stations are represented by yellow and red dots on the map.

Hover mouse over dot to see the name of the station.

Then click to see weather observations and forecasts.

To change the map : click on the green buttons with a black cross to zoom in, on the green button with a dash to zoom out, or on the green arrows for adjacent maps.


METAR-TAF: